Hereford, Maryland
Current Conditions -  °F | °C
As of 4:45 PM on Sunday 23 Nov 2014 (Local Time) from KMTN Reporting Station
Clear Clear  
Wind Chill:   Ceiling: Unl
Heat Index:   Visibility: 10mi
Dew Point:   Wind: 0mph
Humidity: 62%   Direction: NA
Pressure: 30.11"   Gusts: NA
Location:  39.5784°N, 76.5798°W
Report Text: KMTN 232145Z 00000KT 10SM SKC 08/01 A3011
Loading
Personal Weather Stations






























Interactive Weather Map New forecast layout! Learn more

10-Day Weather Forecast

Advertisements
Track Severe Weather on mobile